Terminal Aerodrome Forecast
Issued by NWS

Home | Current Version | Previous Version | Text Only | Print | Product List | Glossary On
Versions: 1 2 3 4 5 6 7 8 9 10 11 12 13 14 15 16 17
000
FTUS41 KRNK 181738
TAFLWB
TAF
KLWB 181738Z 1818/1918 22006KT P6SM SCT060 OVC150
     FM190100 20010KT P6SM OVC040
      TEMPO 1901/1902 4SM -SHRA OVC025
     FM190700 26014G25KT P6SM OVC025
     FM191100 29016G25KT P6SM OVC015=

USA.gov is the U.S. government's official web portal to all federal, state and local government web resources and services.